createdAt,value
2023-03-18T00:18:23.870Z,19.5
2023-03-18T00:48:23.876Z,19.4
2023-03-18T01:18:23.898Z,19.3
2023-03-18T01:48:23.865Z,19.3
2023-03-18T02:18:23.950Z,19.3
2023-03-18T02:48:23.865Z,19.2
2023-03-18T03:18:23.884Z,19.1
2023-03-18T03:48:23.891Z,19.1
2023-03-18T04:18:23.847Z,19.1
2023-03-18T04:48:23.857Z,19.0
2023-03-18T05:18:23.845Z,19.0
2023-03-18T05:48:23.840Z,19.1
2023-03-18T06:18:23.885Z,19.3
2023-03-18T06:48:23.933Z,19.4
2023-03-18T07:18:23.864Z,19.5
2023-03-18T07:48:23.874Z,19.6
2023-03-18T08:18:23.899Z,19.6
2023-03-18T08:48:23.863Z,19.7
2023-03-18T09:18:23.880Z,19.7
2023-03-18T09:48:23.841Z,19.7
2023-03-18T10:18:23.537Z,19.7
2023-03-18T10:48:23.875Z,19.7
2023-03-18T11:18:23.863Z,19.7
2023-03-18T11:48:23.860Z,19.6
2023-03-18T12:18:23.859Z,19.6
2023-03-18T12:48:23.899Z,19.8
2023-03-18T13:18:23.872Z,19.8
2023-03-18T13:48:23.825Z,19.8
2023-03-18T14:18:23.865Z,19.8
2023-03-18T14:48:23.852Z,19.8
2023-03-18T15:18:23.846Z,19.8
2023-03-18T15:48:23.843Z,19.9
2023-03-18T16:18:23.933Z,19.9
2023-03-18T16:48:23.603Z,19.9
2023-03-18T17:18:23.827Z,19.8
2023-03-18T17:48:23.854Z,19.9
2023-03-18T18:18:23.830Z,19.9
2023-03-18T18:48:23.833Z,20.0
2023-03-18T19:18:23.816Z,20.0
2023-03-18T19:48:23.558Z,20.0
2023-03-18T20:18:23.917Z,20.0
2023-03-18T20:48:23.806Z,20.0
2023-03-18T21:18:23.944Z,20.0
2023-03-18T21:48:23.832Z,19.9
2023-03-18T22:18:23.807Z,19.8
2023-03-18T22:48:23.821Z,19.8
2023-03-18T23:18:23.788Z,19.7
2023-03-18T23:48:23.547Z,19.7
